sensor_id;sensor_type;location;lat;lon;timestamp;temperature;humidity
18444;DHT22;9350;53.176;8.194;2023-08-01T00:01:15;17.60;99.90
18444;DHT22;9350;53.176;8.194;2023-08-01T00:03:42;17.60;99.90
18444;DHT22;9350;53.176;8.194;2023-08-01T00:06:09;17.60;99.90
18444;DHT22;9350;53.176;8.194;2023-08-01T00:08:35;17.60;99.90
18444;DHT22;9350;53.176;8.194;2023-08-01T00:11:04;17.60;99.90
18444;DHT22;9350;53.176;8.194;2023-08-01T00:13:30;17.60;99.90
18444;DHT22;9350;53.176;8.194;2023-08-01T00:15:57;17.60;99.90
18444;DHT22;9350;53.176;8.194;2023-08-01T00:18:24;17.60;99.90
18444;DHT22;9350;53.176;8.194;2023-08-01T00:20:52;17.60;99.90
18444;DHT22;9350;53.176;8.194;2023-08-01T00:23:19;17.60;99.90
18444;DHT22;9350;53.176;8.194;2023-08-01T00:25:45;17.60;99.90
18444;DHT22;9350;53.176;8.194;2023-08-01T00:28:18;17.50;99.90
18444;DHT22;9350;53.176;8.194;2023-08-01T00:30:44;17.60;99.90
18444;DHT22;9350;53.176;8.194;2023-08-01T00:33:11;17.60;99.90
18444;DHT22;9350;53.176;8.194;2023-08-01T00:35:38;17.50;99.90
18444;DHT22;9350;53.176;8.194;2023-08-01T00:38:05;17.50;99.90
18444;DHT22;9350;53.176;8.194;2023-08-01T00:40:32;17.60;99.90
18444;DHT22;9350;53.176;8.194;2023-08-01T00:42:59;17.60;99.90
18444;DHT22;9350;53.176;8.194;2023-08-01T00:45:27;17.60;99.90
18444;DHT22;9350;53.176;8.194;2023-08-01T00:47:54;17.60;99.90
18444;DHT22;9350;53.176;8.194;2023-08-01T00:50:22;17.60;99.90
18444;DHT22;9350;53.176;8.194;2023-08-01T00:52:50;17.50;99.90
18444;DHT22;9350;53.176;8.194;2023-08-01T00:55:18;17.50;99.90
18444;DHT22;9350;53.176;8.194;2023-08-01T00:57:45;17.50;99.90
18444;DHT22;9350;53.176;8.194;2023-08-01T01:00:13;17.60;99.90
18444;DHT22;9350;53.176;8.194;2023-08-01T01:02:41;17.60;99.90
18444;DHT22;9350;53.176;8.194;2023-08-01T01:05:08;17.50;99.90
18444;DHT22;9350;53.176;8.194;2023-08-01T01:07:35;17.50;99.90
18444;DHT22;9350;53.176;8.194;2023-08-01T01:10:03;17.50;99.90
18444;DHT22;9350;53.176;8.194;2023-08-01T01:12:30;17.50;99.90
18444;DHT22;9350;53.176;8.194;2023-08-01T01:14:56;17.50;99.90
18444;DHT22;9350;53.176;8.194;2023-08-01T01:17:23;17.50;99.90
18444;DHT22;9350;53.176;8.194;2023-08-01T01:19:51;17.50;99.90
18444;DHT22;9350;53.176;8.194;2023-08-01T01:22:21;17.50;99.90
18444;DHT22;9350;53.176;8.194;2023-08-01T01:24:48;17.50;99.90
18444;DHT22;9350;53.176;8.194;2023-08-01T01:27:16;17.50;99.90
18444;DHT22;9350;53.176;8.194;2023-08-01T01:29:43;17.50;99.90
18444;DHT22;9350;53.176;8.194;2023-08-01T01:32:11;17.40;99.90
18444;DHT22;9350;53.176;8.194;2023-08-01T01:34:39;17.40;99.90
18444;DHT22;9350;53.176;8.194;2023-08-01T01:37:06;17.40;99.90
18444;DHT22;9350;53.176;8.194;2023-08-01T01:39:34;17.30;99.90
18444;DHT22;9350;53.176;8.194;2023-08-01T01:42:01;17.40;99.90
18444;DHT22;9350;53.176;8.194;2023-08-01T01:44:27;17.40;99.90
18444;DHT22;9350;53.176;8.194;2023-08-01T01:46:54;17.40;99.90
18444;DHT22;9350;53.176;8.194;2023-08-01T01:49:21;17.30;99.90
18444;DHT22;9350;53.176;8.194;2023-08-01T01:51:47;17.30;99.90
18444;DHT22;9350;53.176;8.194;2023-08-01T01:54:14;17.30;99.90
18444;DHT22;9350;53.176;8.194;2023-08-01T01:56:42;17.30;99.90
18444;DHT22;9350;53.176;8.194;2023-08-01T01:59:09;17.30;99.90
18444;DHT22;9350;53.176;8.194;2023-08-01T02:01:35;17.30;99.90
18444;DHT22;9350;53.176;8.194;2023-08-01T02:04:02;17.30;99.90
18444;DHT22;9350;53.176;8.194;2023-08-01T02:06:29;17.40;99.90
18444;DHT22;9350;53.176;8.194;2023-08-01T02:08:56;17.30;99.90
18444;DHT22;9350;53.176;8.194;2023-08-01T02:11:22;17.30;99.90
18444;DHT22;9350;53.176;8.194;2023-08-01T02:13:50;17.30;99.90
18444;DHT22;9350;53.176;8.194;2023-08-01T02:16:17;17.20;99.90
18444;DHT22;9350;53.176;8.194;2023-08-01T02:18:44;17.30;99.90
18444;DHT22;9350;53.176;8.194;2023-08-01T02:21:10;17.30;99.90
18444;DHT22;9350;53.176;8.194;2023-08-01T02:23:37;17.20;99.90
18444;DHT22;9350;53.176;8.194;2023-08-01T02:26:04;17.20;99.90
18444;DHT22;9350;53.176;8.194;2023-08-01T02:28:31;17.20;99.90
18444;DHT22;9350;53.176;8.194;2023-08-01T02:30:59;17.20;99.90
18444;DHT22;9350;53.176;8.194;2023-08-01T02:33:26;17.10;99.90
18444;DHT22;9350;53.176;8.194;2023-08-01T02:35:52;17.10;99.90
18444;DHT22;9350;53.176;8.194;2023-08-01T02:38:19;17.20;99.90
18444;DHT22;9350;53.176;8.194;2023-08-01T02:40:46;17.10;99.90
18444;DHT22;9350;53.176;8.194;2023-08-01T02:43:12;17.10;99.90
18444;DHT22;9350;53.176;8.194;2023-08-01T02:45:41;17.00;99.90
18444;DHT22;9350;53.176;8.194;2023-08-01T02:48:09;17.00;99.90
18444;DHT22;9350;53.176;8.194;2023-08-01T02:50:36;17.00;99.90
18444;DHT22;9350;53.176;8.194;2023-08-01T02:53:05;17.00;99.90
18444;DHT22;9350;53.176;8.194;2023-08-01T02:55:31;17.00;99.90
18444;DHT22;9350;53.176;8.194;2023-08-01T02:57:58;17.00;99.90
18444;DHT22;9350;53.176;8.194;2023-08-01T03:00:25;17.00;99.90
18444;DHT22;9350;53.176;8.194;2023-08-01T03:02:52;17.00;99.90
18444;DHT22;9350;53.176;8.194;2023-08-01T03:05:20;17.00;99.90
18444;DHT22;9350;53.176;8.194;2023-08-01T03:07:46;17.10;99.90
18444;DHT22;9350;53.176;8.194;2023-08-01T03:10:13;17.10;99.90
18444;DHT22;9350;53.176;8.194;2023-08-01T03:12:40;17.10;99.90
18444;DHT22;9350;53.176;8.194;2023-08-01T03:15:07;17.00;99.90
18444;DHT22;9350;53.176;8.194;2023-08-01T03:17:35;17.00;99.90
18444;DHT22;9350;53.176;8.194;2023-08-01T03:20:02;17.10;99.90
18444;DHT22;9350;53.176;8.194;2023-08-01T03:22:30;17.10;99.90
18444;DHT22;9350;53.176;8.194;2023-08-01T03:24:57;17.10;99.90
18444;DHT22;9350;53.176;8.194;2023-08-01T03:27:24;17.00;99.90
18444;DHT22;9350;53.176;8.194;2023-08-01T03:29:50;17.10;99.90
18444;DHT22;9350;53.176;8.194;2023-08-01T03:32:17;17.10;99.90
18444;DHT22;9350;53.176;8.194;2023-08-01T03:34:44;17.10;99.90
18444;DHT22;9350;53.176;8.194;2023-08-01T03:37:10;17.00;99.90
18444;DHT22;9350;53.176;8.194;2023-08-01T03:39:40;17.00;99.90
18444;DHT22;9350;53.176;8.194;2023-08-01T03:42:07;17.00;99.90
18444;DHT22;9350;53.176;8.194;2023-08-01T03:44:34;16.90;99.90
18444;DHT22;9350;53.176;8.194;2023-08-01T03:47:01;16.90;99.90
18444;DHT22;9350;53.176;8.194;2023-08-01T03:49:27;16.90;99.90
18444;DHT22;9350;53.176;8.194;2023-08-01T03:51:54;17.00;99.90
18444;DHT22;9350;53.176;8.194;2023-08-01T03:54:21;16.90;99.90
18444;DHT22;9350;53.176;8.194;2023-08-01T03:56:49;16.90;99.90
18444;DHT22;9350;53.176;8.194;2023-08-01T03:59:16;16.90;99.90
18444;DHT22;9350;53.176;8.194;2023-08-01T04:01:42;16.90;99.90
18444;DHT22;9350;53.176;8.194;2023-08-01T04:04:09;16.90;99.90
18444;DHT22;9350;53.176;8.194;2023-08-01T04:06:36;16.90;99.90
18444;DHT22;9350;53.176;8.194;2023-08-01T04:09:03;16.90;99.90
18444;DHT22;9350;53.176;8.194;2023-08-01T04:11:32;16.90;99.90
18444;DHT22;9350;53.176;8.194;2023-08-01T04:14:00;16.90;99.90
18444;DHT22;9350;53.176;8.194;2023-08-01T04:16:26;16.90;99.90
18444;DHT22;9350;53.176;8.194;2023-08-01T04:18:53;16.90;99.90
18444;DHT22;9350;53.176;8.194;2023-08-01T04:21:20;16.90;99.90
18444;DHT22;9350;53.176;8.194;2023-08-01T04:23:46;16.90;99.90
18444;DHT22;9350;53.176;8.194;2023-08-01T04:26:13;16.90;99.90
18444;DHT22;9350;53.176;8.194;2023-08-01T04:28:40;16.80;99.90
18444;DHT22;9350;53.176;8.194;2023-08-01T04:31:08;16.80;99.90
18444;DHT22;9350;53.176;8.194;2023-08-01T04:33:34;16.90;99.90
18444;DHT22;9350;53.176;8.194;2023-08-01T04:36:01;16.90;99.90
18444;DHT22;9350;53.176;8.194;2023-08-01T04:38:28;16.90;99.90
18444;DHT22;9350;53.176;8.194;2023-08-01T04:40:54;16.90;99.90
18444;DHT22;9350;53.176;8.194;2023-08-01T04:43:21;16.80;99.90
18444;DHT22;9350;53.176;8.194;2023-08-01T04:45:48;16.90;99.90
18444;DHT22;9350;53.176;8.194;2023-08-01T04:48:16;16.90;99.90
18444;DHT22;9350;53.176;8.194;2023-08-01T04:50:42;16.80;99.90
18444;DHT22;9350;53.176;8.194;2023-08-01T04:53:10;16.80;99.90
18444;DHT22;9350;53.176;8.194;2023-08-01T04:55:37;16.80;99.90
18444;DHT22;9350;53.176;8.194;2023-08-01T04:58:04;16.80;99.90
18444;DHT22;9350;53.176;8.194;2023-08-01T05:00:30;16.80;99.90
18444;DHT22;9350;53.176;8.194;2023-08-01T05:02:57;16.80;99.90
18444;DHT22;9350;53.176;8.194;2023-08-01T05:05:26;16.80;99.90
18444;DHT22;9350;53.176;8.194;2023-08-01T05:07:53;16.80;99.90
18444;DHT22;9350;53.176;8.194;2023-08-01T05:10:19;16.80;99.90
18444;DHT22;9350;53.176;8.194;2023-08-01T05:12:46;16.80;99.90
18444;DHT22;9350;53.176;8.194;2023-08-01T05:15:13;16.80;99.90
18444;DHT22;9350;53.176;8.194;2023-08-01T05:17:39;16.80;99.90
18444;DHT22;9350;53.176;8.194;2023-08-01T05:20:07;16.80;99.90
18444;DHT22;9350;53.176;8.194;2023-08-01T05:22:35;16.80;99.90
18444;DHT22;9350;53.176;8.194;2023-08-01T05:25:02;16.70;99.90
18444;DHT22;9350;53.176;8.194;2023-08-01T05:27:30;16.80;99.90
18444;DHT22;9350;53.176;8.194;2023-08-01T05:29:57;16.80;99.90
18444;DHT22;9350;53.176;8.194;2023-08-01T05:32:23;16.80;99.90
18444;DHT22;9350;53.176;8.194;2023-08-01T05:34:50;16.90;99.90
18444;DHT22;9350;53.176;8.194;2023-08-01T05:37:17;16.90;99.90
18444;DHT22;9350;53.176;8.194;2023-08-01T05:39:45;17.00;99.90
18444;DHT22;9350;53.176;8.194;2023-08-01T05:42:11;17.00;99.90
18444;DHT22;9350;53.176;8.194;2023-08-01T05:44:38;17.10;99.90
18444;DHT22;9350;53.176;8.194;2023-08-01T05:47:05;17.10;99.90
18444;DHT22;9350;53.176;8.194;2023-08-01T05:49:32;17.20;99.90
18444;DHT22;9350;53.176;8.194;2023-08-01T05:51:59;17.10;99.90
18444;DHT22;9350;53.176;8.194;2023-08-01T05:54:25;17.10;99.90
18444;DHT22;9350;53.176;8.194;2023-08-01T05:56:54;17.20;99.90
18444;DHT22;9350;53.176;8.194;2023-08-01T05:59:20;17.10;99.90
18444;DHT22;9350;53.176;8.194;2023-08-01T06:01:47;17.10;99.90
18444;DHT22;9350;53.176;8.194;2023-08-01T06:04:14;17.20;99.90
18444;DHT22;9350;53.176;8.194;2023-08-01T06:06:40;17.20;99.90
18444;DHT22;9350;53.176;8.194;2023-08-01T06:09:07;17.20;99.90
18444;DHT22;9350;53.176;8.194;2023-08-01T06:11:34;17.20;99.90
18444;DHT22;9350;53.176;8.194;2023-08-01T06:14:02;17.20;99.90
18444;DHT22;9350;53.176;8.194;2023-08-01T06:16:28;17.20;99.90
18444;DHT22;9350;53.176;8.194;2023-08-01T06:18:55;17.20;99.90
18444;DHT22;9350;53.176;8.194;2023-08-01T06:21:23;17.10;99.90
18444;DHT22;9350;53.176;8.194;2023-08-01T06:23:49;17.10;99.90
18444;DHT22;9350;53.176;8.194;2023-08-01T06:26:16;17.10;99.90
18444;DHT22;9350;53.176;8.194;2023-08-01T06:28:43;17.20;99.90
18444;DHT22;9350;53.176;8.194;2023-08-01T06:31:11;17.20;99.90
18444;DHT22;9350;53.176;8.194;2023-08-01T06:33:37;17.20;99.90
18444;DHT22;9350;53.176;8.194;2023-08-01T06:36:05;17.20;99.90
18444;DHT22;9350;53.176;8.194;2023-08-01T06:38:31;17.20;99.90
18444;DHT22;9350;53.176;8.194;2023-08-01T06:40:58;17.30;99.90
18444;DHT22;9350;53.176;8.194;2023-08-01T06:43:25;17.30;99.90
18444;DHT22;9350;53.176;8.194;2023-08-01T06:45:51;17.30;99.90
18444;DHT22;9350;53.176;8.194;2023-08-01T06:48:20;17.40;99.90
18444;DHT22;9350;53.176;8.194;2023-08-01T06:50:46;17.40;99.90
18444;DHT22;9350;53.176;8.194;2023-08-01T06:53:13;17.40;99.90
18444;DHT22;9350;53.176;8.194;2023-08-01T06:55:40;17.50;99.90
18444;DHT22;9350;53.176;8.194;2023-08-01T06:58:06;17.40;99.90
18444;DHT22;9350;53.176;8.194;2023-08-01T07:00:33;17.40;99.90
18444;DHT22;9350;53.176;8.194;2023-08-01T07:03:00;17.40;99.90
18444;DHT22;9350;53.176;8.194;2023-08-01T07:05:28;17.30;99.90
18444;DHT22;9350;53.176;8.194;2023-08-01T07:07:55;17.30;99.90
18444;DHT22;9350;53.176;8.194;2023-08-01T07:10:22;17.40;99.90
18444;DHT22;9350;53.176;8.194;2023-08-01T07:12:48;17.40;99.90
18444;DHT22;9350;53.176;8.194;2023-08-01T07:15:15;17.40;99.90
18444;DHT22;9350;53.176;8.194;2023-08-01T07:17:42;17.40;99.90
18444;DHT22;9350;53.176;8.194;2023-08-01T07:20:10;17.50;99.90
18444;DHT22;9350;53.176;8.194;2023-08-01T07:22:38;17.60;99.90
18444;DHT22;9350;53.176;8.194;2023-08-01T07:25:05;17.60;99.90
18444;DHT22;9350;53.176;8.194;2023-08-01T07:27:32;17.60;99.90
18444;DHT22;9350;53.176;8.194;2023-08-01T07:29:59;17.70;99.90
18444;DHT22;9350;53.176;8.194;2023-08-01T07:32:25;17.80;99.90
18444;DHT22;9350;53.176;8.194;2023-08-01T07:34:52;17.70;99.90
18444;DHT22;9350;53.176;8.194;2023-08-01T07:37:19;17.80;99.90
18444;DHT22;9350;53.176;8.194;2023-08-01T07:39:47;17.80;99.90
18444;DHT22;9350;53.176;8.194;2023-08-01T07:42:15;17.90;99.90
18444;DHT22;9350;53.176;8.194;2023-08-01T07:44:42;18.00;99.90
18444;DHT22;9350;53.176;8.194;2023-08-01T07:47:09;18.00;99.90
18444;DHT22;9350;53.176;8.194;2023-08-01T07:49:35;18.00;99.90
18444;DHT22;9350;53.176;8.194;2023-08-01T07:52:02;18.00;99.90
18444;DHT22;9350;53.176;8.194;2023-08-01T07:54:29;18.00;99.90
18444;DHT22;9350;53.176;8.194;2023-08-01T07:56:57;18.00;99.90
18444;DHT22;9350;53.176;8.194;2023-08-01T07:59:24;18.10;99.90
18444;DHT22;9350;53.176;8.194;2023-08-01T08:01:50;18.10;99.90
18444;DHT22;9350;53.176;8.194;2023-08-01T08:04:18;18.10;99.90
18444;DHT22;9350;53.176;8.194;2023-08-01T08:06:45;18.20;99.90
18444;DHT22;9350;53.176;8.194;2023-08-01T08:09:11;18.20;99.90
18444;DHT22;9350;53.176;8.194;2023-08-01T08:11:39;18.30;99.90
18444;DHT22;9350;53.176;8.194;2023-08-01T08:14:07;18.30;99.90
18444;DHT22;9350;53.176;8.194;2023-08-01T08:16:34;18.30;99.90
18444;DHT22;9350;53.176;8.194;2023-08-01T08:19:00;18.30;99.90
18444;DHT22;9350;53.176;8.194;2023-08-01T08:21:27;18.30;99.90
18444;DHT22;9350;53.176;8.194;2023-08-01T08:23:54;18.40;99.90
18444;DHT22;9350;53.176;8.194;2023-08-01T08:26:20;18.40;99.90
18444;DHT22;9350;53.176;8.194;2023-08-01T08:28:47;18.40;99.90
18444;DHT22;9350;53.176;8.194;2023-08-01T08:31:15;18.40;99.90
18444;DHT22;9350;53.176;8.194;2023-08-01T08:33:42;18.50;99.90
18444;DHT22;9350;53.176;8.194;2023-08-01T08:36:08;18.60;99.90
18444;DHT22;9350;53.176;8.194;2023-08-01T08:38:35;18.60;99.90
18444;DHT22;9350;53.176;8.194;2023-08-01T08:41:08;18.70;99.90
18444;DHT22;9350;53.176;8.194;2023-08-01T08:43:35;18.70;99.90
18444;DHT22;9350;53.176;8.194;2023-08-01T08:46:03;18.70;99.90
18444;DHT22;9350;53.176;8.194;2023-08-01T08:48:32;18.70;99.90
18444;DHT22;9350;53.176;8.194;2023-08-01T08:51:00;18.70;99.90
18444;DHT22;9350;53.176;8.194;2023-08-01T08:53:27;18.60;99.90
18444;DHT22;9350;53.176;8.194;2023-08-01T08:55:54;18.60;99.90
18444;DHT22;9350;53.176;8.194;2023-08-01T08:58:21;18.60;99.90
18444;DHT22;9350;53.176;8.194;2023-08-01T09:00:48;18.60;99.90
18444;DHT22;9350;53.176;8.194;2023-08-01T09:03:15;18.60;99.90
18444;DHT22;9350;53.176;8.194;2023-08-01T09:05:49;18.70;99.90
18444;DHT22;9350;53.176;8.194;2023-08-01T09:08:18;18.70;99.90
18444;DHT22;9350;53.176;8.194;2023-08-01T09:10:46;18.70;99.90
18444;DHT22;9350;53.176;8.194;2023-08-01T09:13:13;18.70;99.90
18444;DHT22;9350;53.176;8.194;2023-08-01T09:15:41;18.80;99.90
18444;DHT22;9350;53.176;8.194;2023-08-01T09:18:09;18.70;99.90
18444;DHT22;9350;53.176;8.194;2023-08-01T09:20:43;18.60;99.90
18444;DHT22;9350;53.176;8.194;2023-08-01T09:23:11;18.50;99.90
18444;DHT22;9350;53.176;8.194;2023-08-01T09:25:38;18.50;99.90
18444;DHT22;9350;53.176;8.194;2023-08-01T09:28:15;18.50;99.90
18444;DHT22;9350;53.176;8.194;2023-08-01T09:30:46;18.40;99.90
18444;DHT22;9350;53.176;8.194;2023-08-01T09:33:13;18.40;99.90
18444;DHT22;9350;53.176;8.194;2023-08-01T09:35:40;18.40;99.90
18444;DHT22;9350;53.176;8.194;2023-08-01T09:38:07;18.50;99.90
18444;DHT22;9350;53.176;8.194;2023-08-01T09:40:37;18.50;99.90
18444;DHT22;9350;53.176;8.194;2023-08-01T09:43:04;18.50;99.90
18444;DHT22;9350;53.176;8.194;2023-08-01T09:45:31;18.50;99.90
18444;DHT22;9350;53.176;8.194;2023-08-01T09:47:59;18.60;99.90
18444;DHT22;9350;53.176;8.194;2023-08-01T09:50:26;18.70;99.90
18444;DHT22;9350;53.176;8.194;2023-08-01T09:52:53;18.70;99.90
18444;DHT22;9350;53.176;8.194;2023-08-01T09:55:26;18.70;99.90
18444;DHT22;9350;53.176;8.194;2023-08-01T09:57:57;18.70;99.90
18444;DHT22;9350;53.176;8.194;2023-08-01T10:00:25;18.60;99.90
18444;DHT22;9350;53.176;8.194;2023-08-01T10:02:52;18.60;99.90
18444;DHT22;9350;53.176;8.194;2023-08-01T10:05:20;18.50;99.90
18444;DHT22;9350;53.176;8.194;2023-08-01T10:07:48;18.50;99.90
18444;DHT22;9350;53.176;8.194;2023-08-01T10:10:17;18.50;99.90
18444;DHT22;9350;53.176;8.194;2023-08-01T10:12:45;18.40;99.90
18444;DHT22;9350;53.176;8.194;2023-08-01T10:15:15;18.40;99.90
18444;DHT22;9350;53.176;8.194;2023-08-01T10:17:42;18.40;99.90
18444;DHT22;9350;53.176;8.194;2023-08-01T10:20:11;18.40;99.90
18444;DHT22;9350;53.176;8.194;2023-08-01T10:22:39;18.40;99.90
18444;DHT22;9350;53.176;8.194;2023-08-01T10:25:07;18.50;99.90
18444;DHT22;9350;53.176;8.194;2023-08-01T10:27:35;18.40;99.90
18444;DHT22;9350;53.176;8.194;2023-08-01T10:30:04;18.40;99.90
18444;DHT22;9350;53.176;8.194;2023-08-01T10:32:34;18.30;99.90
18444;DHT22;9350;53.176;8.194;2023-08-01T10:35:02;18.30;99.90
18444;DHT22;9350;53.176;8.194;2023-08-01T10:37:39;18.40;99.90
18444;DHT22;9350;53.176;8.194;2023-08-01T10:40:07;18.40;99.90
18444;DHT22;9350;53.176;8.194;2023-08-01T10:42:38;18.40;99.90
18444;DHT22;9350;53.176;8.194;2023-08-01T10:45:05;18.50;99.90
18444;DHT22;9350;53.176;8.194;2023-08-01T10:47:33;18.60;99.90
18444;DHT22;9350;53.176;8.194;2023-08-01T10:50:00;18.70;99.90
18444;DHT22;9350;53.176;8.194;2023-08-01T10:52:28;18.70;99.90
18444;DHT22;9350;53.176;8.194;2023-08-01T10:54:59;18.80;99.90
18444;DHT22;9350;53.176;8.194;2023-08-01T10:57:27;18.80;99.90
18444;DHT22;9350;53.176;8.194;2023-08-01T10:59:55;18.80;99.90
18444;DHT22;9350;53.176;8.194;2023-08-01T11:02:23;18.90;99.90
18444;DHT22;9350;53.176;8.194;2023-08-01T11:04:59;18.90;99.90
18444;DHT22;9350;53.176;8.194;2023-08-01T11:07:27;19.00;99.90
18444;DHT22;9350;53.176;8.194;2023-08-01T11:10:04;19.10;99.90
18444;DHT22;9350;53.176;8.194;2023-08-01T11:12:34;19.10;99.90
18444;DHT22;9350;53.176;8.194;2023-08-01T11:15:01;19.20;99.90
18444;DHT22;9350;53.176;8.194;2023-08-01T11:17:28;19.20;99.90
18444;DHT22;9350;53.176;8.194;2023-08-01T11:20:02;19.20;99.90
18444;DHT22;9350;53.176;8.194;2023-08-01T11:22:30;19.20;99.90
18444;DHT22;9350;53.176;8.194;2023-08-01T11:24:56;19.20;99.90
18444;DHT22;9350;53.176;8.194;2023-08-01T11:27:24;19.10;99.90
18444;DHT22;9350;53.176;8.194;2023-08-01T11:29:50;19.10;99.90
18444;DHT22;9350;53.176;8.194;2023-08-01T11:32:18;19.10;99.90
18444;DHT22;9350;53.176;8.194;2023-08-01T11:34:46;18.90;99.90
18444;DHT22;9350;53.176;8.194;2023-08-01T11:37:18;18.80;99.90
18444;DHT22;9350;53.176;8.194;2023-08-01T11:39:45;18.70;99.90
18444;DHT22;9350;53.176;8.194;2023-08-01T11:42:15;18.60;99.90
18444;DHT22;9350;53.176;8.194;2023-08-01T11:44:42;18.60;99.90
18444;DHT22;9350;53.176;8.194;2023-08-01T11:47:11;18.60;99.90
18444;DHT22;9350;53.176;8.194;2023-08-01T11:49:38;18.60;99.90
18444;DHT22;9350;53.176;8.194;2023-08-01T11:52:06;18.60;99.90
18444;DHT22;9350;53.176;8.194;2023-08-01T11:54:44;18.60;99.90
18444;DHT22;9350;53.176;8.194;2023-08-01T11:57:11;18.70;99.90
18444;DHT22;9350;53.176;8.194;2023-08-01T11:59:46;18.70;99.90
18444;DHT22;9350;53.176;8.194;2023-08-01T12:02:20;18.90;99.90
18444;DHT22;9350;53.176;8.194;2023-08-01T12:04:48;19.00;99.90
18444;DHT22;9350;53.176;8.194;2023-08-01T12:07:15;19.10;99.90
18444;DHT22;9350;53.176;8.194;2023-08-01T12:09:44;19.10;99.90
18444;DHT22;9350;53.176;8.194;2023-08-01T12:12:11;19.10;99.90
18444;DHT22;9350;53.176;8.194;2023-08-01T12:14:40;19.10;99.90
18444;DHT22;9350;53.176;8.194;2023-08-01T12:17:07;19.20;99.90
18444;DHT22;9350;53.176;8.194;2023-08-01T12:19:34;19.20;99.90
18444;DHT22;9350;53.176;8.194;2023-08-01T12:22:00;19.10;99.90
18444;DHT22;9350;53.176;8.194;2023-08-01T12:24:27;19.00;99.90
18444;DHT22;9350;53.176;8.194;2023-08-01T12:26:55;18.90;99.90
18444;DHT22;9350;53.176;8.194;2023-08-01T12:29:22;18.70;99.90
18444;DHT22;9350;53.176;8.194;2023-08-01T12:31:49;18.50;99.90
18444;DHT22;9350;53.176;8.194;2023-08-01T12:34:15;18.40;99.90
18444;DHT22;9350;53.176;8.194;2023-08-01T12:36:42;18.40;99.90
18444;DHT22;9350;53.176;8.194;2023-08-01T12:39:09;18.20;99.90
18444;DHT22;9350;53.176;8.194;2023-08-01T12:41:36;18.20;99.90
18444;DHT22;9350;53.176;8.194;2023-08-01T12:44:05;18.30;99.90
18444;DHT22;9350;53.176;8.194;2023-08-01T12:46:31;18.30;99.90
18444;DHT22;9350;53.176;8.194;2023-08-01T12:48:58;18.30;99.90
18444;DHT22;9350;53.176;8.194;2023-08-01T12:51:25;18.40;99.90
18444;DHT22;9350;53.176;8.194;2023-08-01T12:53:51;18.40;99.90
18444;DHT22;9350;53.176;8.194;2023-08-01T12:56:18;18.50;99.90
18444;DHT22;9350;53.176;8.194;2023-08-01T12:58:45;18.50;99.90
18444;DHT22;9350;53.176;8.194;2023-08-01T13:01:13;18.50;99.90
18444;DHT22;9350;53.176;8.194;2023-08-01T13:03:40;18.60;99.90
18444;DHT22;9350;53.176;8.194;2023-08-01T13:06:09;18.70;99.90
18444;DHT22;9350;53.176;8.194;2023-08-01T13:08:36;18.80;99.90
18444;DHT22;9350;53.176;8.194;2023-08-01T13:11:10;19.00;99.90
18444;DHT22;9350;53.176;8.194;2023-08-01T13:13:37;18.90;99.90
18444;DHT22;9350;53.176;8.194;2023-08-01T13:16:04;18.90;99.90
18444;DHT22;9350;53.176;8.194;2023-08-01T13:18:32;18.90;99.90
18444;DHT22;9350;53.176;8.194;2023-08-01T13:20:58;18.90;99.90
18444;DHT22;9350;53.176;8.194;2023-08-01T13:26:05;19.10;99.90
18444;DHT22;9350;53.176;8.194;2023-08-01T13:28:32;19.20;99.90
18444;DHT22;9350;53.176;8.194;2023-08-01T13:30:58;19.30;99.90
18444;DHT22;9350;53.176;8.194;2023-08-01T13:33:25;19.30;99.90
18444;DHT22;9350;53.176;8.194;2023-08-01T13:35:53;19.30;99.90
18444;DHT22;9350;53.176;8.194;2023-08-01T13:38:20;19.30;99.90
18444;DHT22;9350;53.176;8.194;2023-08-01T13:40:47;19.30;99.90
18444;DHT22;9350;53.176;8.194;2023-08-01T13:43:13;19.30;99.90
18444;DHT22;9350;53.176;8.194;2023-08-01T13:45:40;19.40;99.90
18444;DHT22;9350;53.176;8.194;2023-08-01T13:48:08;19.60;99.90
18444;DHT22;9350;53.176;8.194;2023-08-01T13:50:34;19.70;99.90
18444;DHT22;9350;53.176;8.194;2023-08-01T13:53:02;19.70;99.90
18444;DHT22;9350;53.176;8.194;2023-08-01T13:55:29;19.80;99.90
18444;DHT22;9350;53.176;8.194;2023-08-01T13:57:58;19.70;99.90
18444;DHT22;9350;53.176;8.194;2023-08-01T14:00:25;19.80;99.90
18444;DHT22;9350;53.176;8.194;2023-08-01T14:02:51;19.80;99.90
18444;DHT22;9350;53.176;8.194;2023-08-01T14:05:18;19.80;99.90
18444;DHT22;9350;53.176;8.194;2023-08-01T14:07:45;19.90;99.90
18444;DHT22;9350;53.176;8.194;2023-08-01T14:10:13;19.90;99.90
18444;DHT22;9350;53.176;8.194;2023-08-01T14:12:40;19.90;99.90
18444;DHT22;9350;53.176;8.194;2023-08-01T14:15:08;19.90;99.90
18444;DHT22;9350;53.176;8.194;2023-08-01T14:17:35;19.90;99.90
18444;DHT22;9350;53.176;8.194;2023-08-01T14:20:01;19.90;99.90
18444;DHT22;9350;53.176;8.194;2023-08-01T14:22:30;19.90;99.90
18444;DHT22;9350;53.176;8.194;2023-08-01T14:24:57;19.80;99.90
18444;DHT22;9350;53.176;8.194;2023-08-01T14:27:25;19.70;99.90
18444;DHT22;9350;53.176;8.194;2023-08-01T14:29:52;19.60;99.90
18444;DHT22;9350;53.176;8.194;2023-08-01T14:32:19;19.50;99.90
18444;DHT22;9350;53.176;8.194;2023-08-01T14:34:46;19.40;99.90
18444;DHT22;9350;53.176;8.194;2023-08-01T14:37:12;19.30;99.90
18444;DHT22;9350;53.176;8.194;2023-08-01T14:39:39;19.30;99.90
18444;DHT22;9350;53.176;8.194;2023-08-01T14:42:06;19.10;99.90
18444;DHT22;9350;53.176;8.194;2023-08-01T14:44:34;19.10;99.90
18444;DHT22;9350;53.176;8.194;2023-08-01T14:47:01;19.10;99.90
18444;DHT22;9350;53.176;8.194;2023-08-01T14:49:28;19.20;99.90
18444;DHT22;9350;53.176;8.194;2023-08-01T14:51:54;19.20;99.90
18444;DHT22;9350;53.176;8.194;2023-08-01T14:54:21;19.20;99.90
18444;DHT22;9350;53.176;8.194;2023-08-01T14:56:50;19.20;99.90
18444;DHT22;9350;53.176;8.194;2023-08-01T14:59:17;19.30;99.90
18444;DHT22;9350;53.176;8.194;2023-08-01T15:01:45;19.20;99.90
18444;DHT22;9350;53.176;8.194;2023-08-01T15:04:11;19.20;99.90
18444;DHT22;9350;53.176;8.194;2023-08-01T15:06:38;19.20;99.90
18444;DHT22;9350;53.176;8.194;2023-08-01T15:09:05;19.20;99.90
18444;DHT22;9350;53.176;8.194;2023-08-01T15:11:31;19.20;99.90
18444;DHT22;9350;53.176;8.194;2023-08-01T15:13:58;19.30;99.90
18444;DHT22;9350;53.176;8.194;2023-08-01T15:16:25;19.40;99.90
18444;DHT22;9350;53.176;8.194;2023-08-01T15:18:53;19.60;99.90
18444;DHT22;9350;53.176;8.194;2023-08-01T15:21:19;19.60;99.90
18444;DHT22;9350;53.176;8.194;2023-08-01T15:23:47;19.60;99.90
18444;DHT22;9350;53.176;8.194;2023-08-01T15:26:14;19.50;99.90
18444;DHT22;9350;53.176;8.194;2023-08-01T15:28:41;19.50;99.90
18444;DHT22;9350;53.176;8.194;2023-08-01T15:31:09;19.40;99.90
18444;DHT22;9350;53.176;8.194;2023-08-01T15:33:37;19.40;99.90
18444;DHT22;9350;53.176;8.194;2023-08-01T15:36:06;19.40;99.90
18444;DHT22;9350;53.176;8.194;2023-08-01T15:38:35;19.40;99.90
18444;DHT22;9350;53.176;8.194;2023-08-01T15:41:02;19.50;99.90
18444;DHT22;9350;53.176;8.194;2023-08-01T15:43:34;19.70;99.90
18444;DHT22;9350;53.176;8.194;2023-08-01T15:46:01;19.80;99.90
18444;DHT22;9350;53.176;8.194;2023-08-01T15:48:27;19.70;99.90